createdAt,value
2022-08-14T00:01:55.226Z,101092.00
2022-08-14T00:04:34.817Z,101087.00
2022-08-14T00:07:06.030Z,101086.00
2022-08-14T00:09:56.259Z,101091.00
2022-08-14T00:12:24.753Z,101096.00
2022-08-14T00:15:01.308Z,101101.00
2022-08-14T00:17:29.920Z,101090.00
2022-08-14T00:19:58.180Z,101080.00
2022-08-14T00:22:56.303Z,101095.00
2022-08-14T00:25:13.667Z,101085.00
2022-08-14T00:27:42.557Z,101089.00
2022-08-14T00:30:14.317Z,101089.00
2022-08-14T00:32:50.244Z,101083.00
2022-08-14T00:35:35.746Z,101099.00
2022-08-14T00:38:10.950Z,101081.00
2022-08-14T00:40:38.150Z,101085.00
2022-08-14T00:43:06.464Z,101079.00
2022-08-14T00:45:34.522Z,101075.00
2022-08-14T00:48:01.682Z,101080.00
2022-08-14T00:50:30.476Z,101085.00
2022-08-14T00:53:04.125Z,101074.00
2022-08-14T00:55:31.542Z,101068.00
2022-08-14T00:58:32.466Z,101064.00
2022-08-14T01:01:11.549Z,101061.00
2022-08-14T01:03:42.307Z,101059.00
2022-08-14T01:06:12.207Z,101067.00
2022-08-14T01:08:51.295Z,101059.00
2022-08-14T01:11:31.508Z,101062.00
2022-08-14T01:14:18.496Z,101061.00
2022-08-14T01:16:52.992Z,101066.00
2022-08-14T01:19:38.749Z,101057.00
2022-08-14T01:22:12.739Z,101048.00
2022-08-14T01:24:41.705Z,101050.00
2022-08-14T01:27:19.066Z,101048.00
2022-08-14T01:30:03.311Z,101055.00
2022-08-14T01:32:37.509Z,101053.00
2022-08-14T01:35:21.299Z,101054.00
2022-08-14T01:37:59.819Z,101048.00
2022-08-14T01:40:37.263Z,101059.00
2022-08-14T01:43:18.681Z,101055.00
2022-08-14T01:45:57.858Z,101054.00
2022-08-14T01:48:33.787Z,101054.00
2022-08-14T01:51:19.121Z,101054.00
2022-08-14T01:53:55.570Z,101065.00
2022-08-14T01:56:47.897Z,101056.00
2022-08-14T01:59:38.296Z,101047.00
2022-08-14T02:02:19.018Z,101048.00
2022-08-14T02:04:55.613Z,101062.00
2022-08-14T02:07:34.503Z,101057.00
2022-08-14T02:10:15.799Z,101050.00
2022-08-14T02:12:49.038Z,101050.00
2022-08-14T02:15:25.005Z,101054.00
2022-08-14T02:17:51.851Z,101044.00
2022-08-14T02:20:23.550Z,101049.00
2022-08-14T02:22:54.863Z,101039.00
2022-08-14T02:25:22.795Z,101037.00
2022-08-14T02:28:23.733Z,101041.00
2022-08-14T02:30:38.423Z,101038.00
2022-08-14T02:33:07.387Z,101037.00
2022-08-14T02:35:40.512Z,101043.00
2022-08-14T02:38:08.005Z,101032.00
2022-08-14T02:40:39.176Z,101030.00
2022-08-14T02:43:08.723Z,101026.00
2022-08-14T02:45:38.625Z,101023.00
2022-08-14T02:49:01.502Z,101025.00
2022-08-14T02:51:07.275Z,101024.00
2022-08-14T02:53:39.799Z,101021.00
2022-08-14T02:56:30.846Z,101016.00
2022-08-14T02:59:05.677Z,101018.00
2022-08-14T03:01:50.172Z,101009.00
2022-08-14T03:04:20.307Z,101007.00
2022-08-14T03:07:06.662Z,101000.00
2022-08-14T03:09:41.880Z,100997.00
2022-08-14T03:12:31.219Z,100995.00
2022-08-14T03:15:03.202Z,100999.00
2022-08-14T03:17:31.905Z,101004.00
2022-08-14T03:20:11.334Z,101008.00
2022-08-14T03:22:42.226Z,101006.00
2022-08-14T03:25:12.230Z,101008.00
2022-08-14T03:27:47.633Z,101010.00
2022-08-14T03:30:15.532Z,100997.00
2022-08-14T03:32:50.482Z,100997.00
2022-08-14T03:35:19.922Z,100996.00
2022-08-14T03:39:12.347Z,101008.00
2022-08-14T03:40:33.834Z,101006.00
2022-08-14T03:43:05.675Z,101003.00
2022-08-14T03:45:38.752Z,100999.00
2022-08-14T03:48:29.514Z,100994.00
2022-08-14T03:50:59.118Z,101004.00
2022-08-14T03:53:26.360Z,101006.00
2022-08-14T03:55:56.117Z,101009.00
2022-08-14T03:58:36.747Z,101005.00
2022-08-14T04:01:04.275Z,100993.00
2022-08-14T04:03:34.482Z,100990.00
2022-08-14T04:06:05.838Z,100987.00
2022-08-14T04:08:38.364Z,100984.00
2022-08-14T04:11:10.306Z,100977.00
2022-08-14T04:13:42.381Z,100978.00
2022-08-14T04:16:20.757Z,100973.00
2022-08-14T04:18:53.018Z,100971.00
2022-08-14T04:21:25.686Z,100975.00
2022-08-14T04:23:57.346Z,100983.00
2022-08-14T04:26:43.157Z,100979.00
2022-08-14T04:29:15.611Z,100980.00
2022-08-14T04:33:01.459Z,100982.00
2022-08-14T04:34:31.604Z,100977.00
2022-08-14T04:37:24.507Z,100975.00
2022-08-14T04:40:12.744Z,100974.00
2022-08-14T04:42:59.435Z,100984.00
2022-08-14T04:45:37.397Z,100973.00
2022-08-14T04:48:38.738Z,100971.00
2022-08-14T04:51:06.768Z,100971.00
2022-08-14T04:53:42.819Z,100974.00
2022-08-14T04:56:30.925Z,100977.00
2022-08-14T04:59:09.993Z,100972.00
2022-08-14T05:01:47.889Z,100975.00
2022-08-14T05:04:20.115Z,100982.00
2022-08-14T05:06:53.578Z,100982.00
2022-08-14T05:09:28.686Z,100965.00
2022-08-14T05:11:56.376Z,100970.00
2022-08-14T05:14:46.513Z,100958.00
2022-08-14T05:17:28.870Z,100961.00
2022-08-14T05:21:04.954Z,100958.00
2022-08-14T05:22:59.443Z,100967.00
2022-08-14T05:25:30.943Z,100959.00
2022-08-14T05:28:19.149Z,100957.00
2022-08-14T05:30:51.374Z,100964.00
2022-08-14T05:33:21.102Z,100949.00
2022-08-14T05:35:49.135Z,100949.00
2022-08-14T05:38:30.777Z,100949.00
2022-08-14T05:40:59.703Z,100943.00
2022-08-14T05:43:40.662Z,100933.00
2022-08-14T05:46:15.343Z,100939.00
2022-08-14T05:48:43.234Z,100931.00
2022-08-14T05:51:10.437Z,100934.00
2022-08-14T05:53:42.263Z,100939.00
2022-08-14T05:56:09.711Z,100942.00
2022-08-14T05:58:41.051Z,100947.00
2022-08-14T06:01:09.618Z,100943.00
2022-08-14T06:03:37.202Z,100944.00
2022-08-14T06:06:07.601Z,100946.00
2022-08-14T06:08:41.329Z,100946.00
2022-08-14T06:11:09.406Z,100943.00
2022-08-14T06:13:45.161Z,100947.00
2022-08-14T06:16:17.873Z,100955.00
2022-08-14T06:18:52.760Z,100942.00
2022-08-14T06:21:21.996Z,100948.00
2022-08-14T06:23:49.566Z,100935.00
2022-08-14T06:26:16.409Z,100931.00
2022-08-14T06:28:47.714Z,100924.00
2022-08-14T06:31:20.716Z,100921.00
2022-08-14T06:35:09.122Z,100909.00
2022-08-14T06:36:36.645Z,100917.00
2022-08-14T06:39:04.175Z,100918.00
2022-08-14T06:41:58.289Z,100919.00
2022-08-14T06:44:30.700Z,100921.00
2022-08-14T06:47:01.814Z,100923.00
2022-08-14T06:49:30.181Z,100931.00
2022-08-14T06:51:57.608Z,100929.00
2022-08-14T06:54:31.313Z,100929.00
2022-08-14T06:56:59.033Z,100927.00
2022-08-14T06:59:26.112Z,100920.00
2022-08-14T07:02:13.399Z,100923.00
2022-08-14T07:05:05.327Z,100917.00
2022-08-14T07:07:41.294Z,100906.00
2022-08-14T07:10:17.043Z,100905.00
2022-08-14T07:13:01.127Z,100909.00
2022-08-14T07:15:32.510Z,100904.00
2022-08-14T07:18:01.506Z,100908.00
2022-08-14T07:20:31.360Z,100896.00
2022-08-14T07:23:08.425Z,100900.00
2022-08-14T07:25:38.037Z,100898.00
2022-08-14T07:28:20.925Z,100900.00
2022-08-14T07:30:51.418Z,100895.00
2022-08-14T07:33:20.850Z,100904.00
2022-08-14T07:35:57.848Z,100894.00
2022-08-14T07:38:33.698Z,100894.00
2022-08-14T07:41:06.806Z,100900.00
2022-08-14T07:43:35.347Z,100896.00
2022-08-14T07:46:03.797Z,100882.00
2022-08-14T07:48:31.946Z,100881.00
2022-08-14T07:51:00.699Z,100886.00
2022-08-14T07:53:30.428Z,100893.00
2022-08-14T07:56:21.735Z,100883.00
2022-08-14T07:58:51.751Z,100877.00
2022-08-14T08:01:19.907Z,100883.00
2022-08-14T08:03:51.805Z,100877.00
2022-08-14T08:06:20.237Z,100877.00
2022-08-14T08:08:58.843Z,100872.00
2022-08-14T08:11:37.460Z,100875.00
2022-08-14T08:14:10.300Z,100880.00
2022-08-14T08:16:38.295Z,100878.00
2022-08-14T08:19:12.662Z,100875.00
2022-08-14T08:21:43.784Z,100871.00
2022-08-14T08:24:12.525Z,100860.00
2022-08-14T08:26:46.022Z,100862.00
2022-08-14T08:29:28.365Z,100865.00
2022-08-14T08:32:01.747Z,100855.00
2022-08-14T08:34:46.083Z,100870.00
2022-08-14T08:37:15.256Z,100862.00
2022-08-14T08:40:03.247Z,100868.00
2022-08-14T08:42:38.612Z,100860.00
2022-08-14T08:45:12.074Z,100860.00
2022-08-14T08:47:40.620Z,100861.00
2022-08-14T08:53:09.455Z,100843.00
2022-08-14T08:55:43.600Z,100839.00
2022-08-14T08:58:25.351Z,100834.00
2022-08-14T09:00:56.510Z,100830.00
2022-08-14T09:03:28.394Z,100825.00
2022-08-14T09:06:01.527Z,100830.00
2022-08-14T09:08:33.328Z,100834.00
2022-08-14T09:11:19.074Z,100830.00
2022-08-14T09:13:53.846Z,100835.00
2022-08-14T09:16:25.092Z,100825.00
2022-08-14T09:18:53.768Z,100822.00
2022-08-14T09:21:23.875Z,100812.00
2022-08-14T09:24:28.504Z,100820.00
2022-08-14T09:26:49.326Z,100810.00
2022-08-14T09:29:22.898Z,100812.00
2022-08-14T09:31:57.574Z,100818.00
2022-08-14T09:34:58.267Z,100805.00
2022-08-14T09:37:55.239Z,100805.00
2022-08-14T09:41:08.390Z,100798.00
2022-08-14T09:44:35.200Z,100805.00
2022-08-14T09:47:02.793Z,100807.00
2022-08-14T09:49:40.620Z,100790.00
2022-08-14T09:52:32.832Z,100798.00
2022-08-14T09:55:02.825Z,100784.00
2022-08-14T09:57:31.722Z,100793.00
2022-08-14T09:59:59.100Z,100786.00
2022-08-14T10:02:35.208Z,100785.00
2022-08-14T10:05:10.804Z,100781.00
2022-08-14T10:07:53.759Z,100779.00
2022-08-14T10:10:40.453Z,100784.00
2022-08-14T10:13:24.041Z,100779.00
2022-08-14T10:15:51.870Z,100771.00
2022-08-14T10:18:21.909Z,100765.00
2022-08-14T10:20:59.206Z,100757.00
2022-08-14T10:23:39.227Z,100757.00
2022-08-14T10:26:09.005Z,100762.00
2022-08-14T10:29:18.906Z,100755.00
2022-08-14T10:31:43.248Z,100744.00
2022-08-14T10:34:19.702Z,100749.00
2022-08-14T10:37:02.591Z,100742.00
2022-08-14T10:39:30.078Z,100735.00
2022-08-14T10:42:16.241Z,100735.00
2022-08-14T10:44:49.169Z,100730.00
2022-08-14T10:47:39.677Z,100722.00
2022-08-14T10:50:14.789Z,100712.00
2022-08-14T10:52:43.418Z,100710.00
2022-08-14T10:55:14.201Z,100712.00
2022-08-14T10:57:57.034Z,100708.00
2022-08-14T11:00:30.008Z,100703.00
2022-08-14T11:03:17.316Z,100705.00
2022-08-14T11:05:55.523Z,100701.00
2022-08-14T11:08:33.906Z,100701.00
2022-08-14T11:11:05.566Z,100708.00
2022-08-14T11:13:33.542Z,100689.00
2022-08-14T11:16:02.606Z,100702.00
2022-08-14T11:18:40.171Z,100699.00
2022-08-14T11:21:09.627Z,100698.00
2022-08-14T11:23:41.057Z,100689.00
2022-08-14T11:26:13.388Z,100697.00
2022-08-14T11:28:47.240Z,100702.00
2022-08-14T11:31:20.238Z,100693.00
2022-08-14T11:33:58.434Z,100697.00
2022-08-14T11:36:35.259Z,100694.00
2022-08-14T11:39:33.769Z,100694.00
2022-08-14T11:42:07.695Z,100686.00
2022-08-14T11:45:11.315Z,100681.00
2022-08-14T11:48:13.597Z,100683.00
2022-08-14T11:50:37.884Z,100680.00
2022-08-14T11:53:07.797Z,100686.00
2022-08-14T11:55:39.508Z,100682.00
2022-08-14T11:58:23.855Z,100665.00
2022-08-14T12:00:54.791Z,100683.00
2022-08-14T12:03:37.469Z,100670.00
2022-08-14T12:06:28.010Z,100660.00
2022-08-14T12:09:00.157Z,100674.00
2022-08-14T12:11:43.825Z,100663.00
2022-08-14T12:14:29.353Z,100663.00
2022-08-14T12:17:12.630Z,100659.00
2022-08-14T12:20:04.861Z,100639.00
2022-08-14T12:22:45.267Z,100642.00
2022-08-14T12:25:24.719Z,100636.00
2022-08-14T12:27:59.146Z,100642.00
2022-08-14T12:30:42.466Z,100638.00
2022-08-14T12:33:39.560Z,100627.00
2022-08-14T12:36:21.036Z,100620.00
2022-08-14T12:38:54.198Z,100622.00
2022-08-14T12:41:27.839Z,100615.00
2022-08-14T12:44:02.190Z,100615.00
2022-08-14T12:46:43.412Z,100613.00
2022-08-14T12:49:16.106Z,100614.00
2022-08-14T12:51:55.231Z,100597.00
2022-08-14T12:54:28.500Z,100597.00
2022-08-14T12:57:35.609Z,100595.00
2022-08-14T13:00:22.931Z,100591.00
2022-08-14T13:02:56.583Z,100593.00
2022-08-14T13:05:31.251Z,100590.00
2022-08-14T13:08:02.698Z,100579.00
2022-08-14T13:10:47.814Z,100579.00
2022-08-14T13:13:20.598Z,100581.00
2022-08-14T13:15:56.100Z,100572.00
2022-08-14T13:18:28.098Z,100571.00
2022-08-14T13:21:01.787Z,100569.00
2022-08-14T13:23:37.530Z,100563.00
2022-08-14T13:26:07.347Z,100547.00
2022-08-14T13:29:02.129Z,100548.00
2022-08-14T13:31:34.079Z,100540.00
2022-08-14T13:34:03.374Z,100527.00
2022-08-14T13:36:51.704Z,100529.00
2022-08-14T13:39:23.633Z,100528.00
2022-08-14T13:41:55.549Z,100515.00
2022-08-14T13:44:27.207Z,100518.00
2022-08-14T13:46:54.489Z,100512.00
2022-08-14T13:49:23.833Z,100515.00
2022-08-14T13:51:58.794Z,100513.00
2022-08-14T13:54:31.258Z,100503.00
2022-08-14T13:57:03.722Z,100502.00
2022-08-14T13:59:37.336Z,100501.00
2022-08-14T14:02:08.000Z,100500.00
2022-08-14T14:04:41.048Z,100499.00
2022-08-14T14:07:14.678Z,100484.00
2022-08-14T14:09:52.946Z,100480.00
2022-08-14T14:12:38.281Z,100474.00
2022-08-14T14:15:14.899Z,100474.00
2022-08-14T14:17:47.563Z,100474.00
2022-08-14T14:20:35.504Z,100469.00
2022-08-14T14:23:11.541Z,100471.00
2022-08-14T14:25:51.277Z,100464.00
2022-08-14T14:28:31.908Z,100455.00
2022-08-14T14:31:06.740Z,100445.00
2022-08-14T14:33:51.361Z,100450.00
2022-08-14T14:36:27.843Z,100438.00
2022-08-14T14:39:06.083Z,100445.00
2022-08-14T14:41:44.380Z,100445.00
2022-08-14T14:44:13.714Z,100451.00
2022-08-14T14:46:50.268Z,100443.00
2022-08-14T14:49:21.815Z,100438.00
2022-08-14T14:51:51.401Z,100432.00
2022-08-14T14:54:31.087Z,100439.00
2022-08-14T14:57:02.354Z,100434.00
2022-08-14T14:59:33.632Z,100434.00
2022-08-14T15:02:09.124Z,100433.00
2022-08-14T15:04:43.702Z,100436.00
2022-08-14T15:07:12.394Z,100438.00
2022-08-14T15:09:41.056Z,100421.00
2022-08-14T15:12:34.489Z,100423.00
2022-08-14T15:15:04.439Z,100430.00
2022-08-14T15:17:41.106Z,100418.00
2022-08-14T15:20:17.631Z,100422.00
2022-08-14T15:22:58.285Z,100417.00
2022-08-14T15:25:25.246Z,100418.00
2022-08-14T15:27:54.610Z,100427.00
2022-08-14T15:30:23.817Z,100416.00
2022-08-14T15:32:53.122Z,100418.00
2022-08-14T15:35:25.749Z,100417.00
2022-08-14T15:37:56.616Z,100412.00
2022-08-14T15:40:23.960Z,100408.00
2022-08-14T15:42:51.157Z,100411.00
2022-08-14T15:45:19.014Z,100404.00
2022-08-14T15:47:45.838Z,100405.00
2022-08-14T15:50:12.967Z,100398.00
2022-08-14T15:52:41.510Z,100394.00
2022-08-14T15:55:14.476Z,100394.00
2022-08-14T15:58:01.872Z,100398.00
2022-08-14T16:00:51.940Z,100395.00
2022-08-14T16:03:25.327Z,100396.00
2022-08-14T16:06:02.752Z,100394.00
2022-08-14T16:08:30.920Z,100391.00
2022-08-14T16:11:01.734Z,100381.00
2022-08-14T16:13:39.871Z,100380.00
2022-08-14T16:16:49.464Z,100374.00
2022-08-14T16:19:12.217Z,100372.00
2022-08-14T16:21:40.909Z,100376.00
2022-08-14T16:24:33.302Z,100376.00
2022-08-14T16:27:01.619Z,100365.00
2022-08-14T16:29:34.631Z,100359.00
2022-08-14T16:32:32.822Z,100361.00
2022-08-14T16:34:54.975Z,100359.00
2022-08-14T16:37:30.400Z,100352.00
2022-08-14T16:40:02.557Z,100353.00
2022-08-14T16:42:39.119Z,100351.00
2022-08-14T16:45:26.255Z,100348.00
2022-08-14T16:47:55.376Z,100354.00
2022-08-14T16:50:42.939Z,100353.00
2022-08-14T16:53:12.743Z,100344.00
2022-08-14T16:55:53.139Z,100341.00
2022-08-14T16:58:29.682Z,100337.00
2022-08-14T17:01:22.672Z,100335.00
2022-08-14T17:04:14.817Z,100337.00
2022-08-14T17:06:55.039Z,100334.00
2022-08-14T17:09:43.477Z,100335.00
2022-08-14T17:12:33.808Z,100334.00
2022-08-14T17:15:15.806Z,100323.00
2022-08-14T17:17:58.005Z,100324.00
2022-08-14T17:20:53.070Z,100331.00
2022-08-14T17:23:15.088Z,100323.00
2022-08-14T17:25:49.383Z,100321.00
2022-08-14T17:28:50.519Z,100317.00
2022-08-14T17:31:12.415Z,100319.00
2022-08-14T17:33:44.537Z,100312.00
2022-08-14T17:36:24.113Z,100321.00
2022-08-14T17:39:13.538Z,100319.00
2022-08-14T17:42:01.898Z,100319.00
2022-08-14T17:44:45.507Z,100323.00
2022-08-14T17:47:17.748Z,100316.00
2022-08-14T17:49:51.762Z,100311.00
2022-08-14T17:52:34.888Z,100315.00
2022-08-14T17:56:00.367Z,100308.00
2022-08-14T17:57:59.257Z,100317.00
2022-08-14T18:00:26.445Z,100333.00
2022-08-14T18:02:54.554Z,100319.00
2022-08-14T18:06:08.349Z,100323.00
2022-08-14T18:08:33.824Z,100326.00
2022-08-14T18:11:00.073Z,100326.00
2022-08-14T18:13:51.351Z,100335.00
2022-08-14T18:16:20.373Z,100336.00
2022-08-14T18:18:51.043Z,100338.00
2022-08-14T18:21:39.967Z,100338.00
2022-08-14T18:24:29.108Z,100348.00
2022-08-14T18:27:08.700Z,100345.00
2022-08-14T18:29:55.551Z,100343.00
2022-08-14T18:32:31.430Z,100346.00
2022-08-14T18:35:18.283Z,100356.00
2022-08-14T18:37:56.108Z,100357.00
2022-08-14T18:40:34.515Z,100352.00
2022-08-14T18:43:03.488Z,100359.00
2022-08-14T18:45:34.558Z,100357.00
2022-08-14T18:48:50.646Z,100356.00
2022-08-14T18:51:45.537Z,100365.00
2022-08-14T18:54:37.091Z,100367.00
2022-08-14T18:57:05.558Z,100366.00
2022-08-14T18:59:43.178Z,100368.00
2022-08-14T19:02:30.618Z,100373.00
2022-08-14T19:05:02.491Z,100373.00
2022-08-14T19:07:33.420Z,100374.00
2022-08-14T19:10:16.544Z,100385.00
2022-08-14T19:12:52.865Z,100379.00
2022-08-14T19:15:39.038Z,100377.00
2022-08-14T19:18:26.540Z,100380.00
2022-08-14T19:21:27.713Z,100377.00
2022-08-14T19:24:29.708Z,100379.00
2022-08-14T19:27:24.408Z,100388.00
2022-08-14T19:30:19.991Z,100386.00
2022-08-14T19:32:52.228Z,100383.00
2022-08-14T19:35:24.441Z,100384.00
2022-08-14T19:37:57.045Z,100380.00
2022-08-14T19:40:38.417Z,100379.00
2022-08-14T19:43:09.179Z,100384.00
2022-08-14T19:45:38.743Z,100378.00
2022-08-14T19:48:14.568Z,100375.00
2022-08-14T19:50:46.233Z,100382.00
2022-08-14T19:53:16.992Z,100374.00
2022-08-14T19:56:02.415Z,100370.00
2022-08-14T19:58:55.441Z,100370.00
2022-08-14T20:01:45.168Z,100363.00
2022-08-14T20:04:46.212Z,100360.00
2022-08-14T20:07:59.651Z,100364.00
2022-08-14T20:11:07.736Z,100357.00
2022-08-14T20:13:32.648Z,100366.00
2022-08-14T20:16:12.092Z,100363.00
2022-08-14T20:18:49.808Z,100362.00
2022-08-14T20:21:20.019Z,100364.00
2022-08-14T20:23:48.240Z,100363.00
2022-08-14T20:26:31.666Z,100357.00
2022-08-14T20:29:05.391Z,100369.00
2022-08-14T20:31:36.355Z,100358.00
2022-08-14T20:34:19.348Z,100353.00
2022-08-14T20:37:11.658Z,100347.00
2022-08-14T20:39:54.709Z,100347.00
2022-08-14T20:42:43.485Z,100343.00
2022-08-14T20:45:24.986Z,100345.00
2022-08-14T20:48:01.256Z,100351.00
2022-08-14T20:50:30.220Z,100347.00
2022-08-14T20:53:00.335Z,100347.00
2022-08-14T20:55:37.257Z,100357.00
2022-08-14T20:58:43.396Z,100362.00
2022-08-14T21:01:20.110Z,100349.00
2022-08-14T21:03:56.744Z,100361.00
2022-08-14T21:07:22.025Z,100352.00
2022-08-14T21:10:05.327Z,100358.00
2022-08-14T21:12:34.267Z,100361.00
2022-08-14T21:15:09.999Z,100361.00
2022-08-14T21:17:37.849Z,100365.00
2022-08-14T21:20:21.228Z,100353.00
2022-08-14T21:22:56.571Z,100362.00
2022-08-14T21:25:31.365Z,100341.00
2022-08-14T21:28:03.227Z,100343.00
2022-08-14T21:30:52.027Z,100354.00
2022-08-14T21:33:21.453Z,100346.00
2022-08-14T21:35:54.921Z,100352.00
2022-08-14T21:38:33.705Z,100346.00
2022-08-14T21:41:41.883Z,100347.00
2022-08-14T21:44:17.595Z,100343.00
2022-08-14T21:46:56.359Z,100337.00
2022-08-14T21:49:38.215Z,100335.00
2022-08-14T21:52:49.093Z,100334.00
2022-08-14T21:55:09.532Z,100335.00
2022-08-14T21:57:56.262Z,100333.00
2022-08-14T22:00:30.295Z,100330.00
2022-08-14T22:03:06.150Z,100333.00
2022-08-14T22:05:33.054Z,100330.00
2022-08-14T22:08:03.258Z,100336.00
2022-08-14T22:10:34.184Z,100322.00
2022-08-14T22:13:02.023Z,100323.00
2022-08-14T22:15:31.058Z,100319.00
2022-08-14T22:17:59.769Z,100326.00
2022-08-14T22:20:28.867Z,100323.00
2022-08-14T22:23:04.287Z,100325.00
2022-08-14T22:25:34.484Z,100330.00
2022-08-14T22:28:19.760Z,100335.00
2022-08-14T22:30:54.674Z,100330.00
2022-08-14T22:33:30.927Z,100314.00
2022-08-14T22:36:00.683Z,100320.00
2022-08-14T22:38:35.987Z,100312.00
2022-08-14T22:41:26.829Z,100315.00
2022-08-14T22:43:59.171Z,100307.00
2022-08-14T22:46:26.498Z,100305.00
2022-08-14T22:48:54.112Z,100304.00
2022-08-14T22:51:26.075Z,100302.00
2022-08-14T22:53:58.255Z,100298.00
2022-08-14T22:56:30.135Z,100301.00
2022-08-14T22:59:01.285Z,100297.00
2022-08-14T23:01:56.867Z,100300.00
2022-08-14T23:04:35.498Z,100301.00
2022-08-14T23:07:14.433Z,100291.00
2022-08-14T23:09:56.275Z,100304.00
2022-08-14T23:12:37.083Z,100298.00
2022-08-14T23:15:05.362Z,100299.00
2022-08-14T23:17:38.960Z,100296.00
2022-08-14T23:20:19.280Z,100290.00
2022-08-14T23:22:51.333Z,100290.00
2022-08-14T23:25:56.844Z,100288.00
2022-08-14T23:28:34.191Z,100295.00
2022-08-14T23:30:55.602Z,100294.00
2022-08-14T23:33:22.621Z,100286.00
2022-08-14T23:35:59.490Z,100281.00
2022-08-14T23:38:30.571Z,100288.00
2022-08-14T23:41:04.404Z,100277.00
2022-08-14T23:43:31.751Z,100279.00
2022-08-14T23:45:59.282Z,100280.00
2022-08-14T23:48:28.497Z,100273.00
2022-08-14T23:50:55.773Z,100271.00
2022-08-14T23:53:48.691Z,100266.00
2022-08-14T23:56:32.054Z,100269.00
2022-08-14T23:59:01.811Z,100283.00
